createdAt,value
2023-03-26T00:00:54.032Z,66.09
2023-03-26T00:03:20.459Z,66.15
2023-03-26T00:05:48.214Z,65.69
2023-03-26T00:08:16.578Z,65.94
2023-03-26T00:10:44.083Z,65.94
2023-03-26T00:13:11.066Z,66.07
2023-03-26T00:15:37.535Z,66.70
2023-03-26T00:18:04.150Z,66.27
2023-03-26T00:20:34.141Z,66.25
2023-03-26T00:23:01.468Z,66.19
2023-03-26T00:25:28.325Z,65.89
2023-03-26T00:27:54.739Z,66.41
2023-03-26T00:30:21.135Z,66.87
2023-03-26T00:32:53.512Z,66.21
2023-03-26T00:35:20.724Z,66.24
2023-03-26T00:37:47.102Z,65.95
2023-03-26T00:40:13.737Z,66.15
2023-03-26T00:42:40.128Z,66.25
2023-03-26T00:45:07.693Z,66.98
2023-03-26T00:47:34.627Z,67.24
2023-03-26T00:50:01.506Z,66.72
2023-03-26T00:52:28.487Z,67.38
2023-03-26T00:54:55.699Z,67.51
2023-03-26T00:57:34.474Z,67.74
2023-03-26T01:00:15.815Z,67.70
2023-03-26T01:02:45.048Z,68.09
2023-03-26T01:05:36.517Z,67.80
2023-03-26T01:08:32.066Z,67.81
2023-03-26T01:11:03.064Z,67.54
2023-03-26T01:13:34.742Z,67.82
2023-03-26T01:16:01.938Z,67.62
2023-03-26T01:18:33.909Z,67.59
2023-03-26T01:21:05.428Z,67.51
2023-03-26T01:23:40.265Z,67.01
2023-03-26T01:26:36.412Z,67.17
2023-03-26T01:29:04.136Z,66.47
2023-03-26T01:31:41.487Z,66.73
2023-03-26T01:34:12.312Z,66.59
2023-03-26T01:36:50.365Z,66.02
2023-03-26T01:39:27.348Z,65.11
2023-03-26T01:41:59.193Z,65.61
2023-03-26T01:44:25.488Z,65.89
2023-03-26T01:46:53.384Z,66.12
2023-03-26T01:49:20.769Z,66.47
2023-03-26T01:51:48.298Z,66.70
2023-03-26T01:54:18.865Z,67.07
2023-03-26T01:57:02.334Z,67.50
2023-03-26T01:59:50.381Z,67.15
2023-03-26T02:02:42.723Z,67.01
2023-03-26T02:05:43.787Z,67.07
2023-03-26T02:08:23.665Z,66.97
2023-03-26T02:11:02.178Z,67.77
2023-03-26T02:13:28.500Z,67.41
2023-03-26T02:16:04.118Z,67.41
2023-03-26T02:18:36.400Z,67.35
2023-03-26T02:21:15.308Z,67.21
2023-03-26T02:23:46.924Z,67.25
2023-03-26T02:26:16.661Z,67.78
2023-03-26T02:28:46.101Z,67.79
2023-03-26T02:31:13.664Z,68.21
2023-03-26T02:33:40.110Z,67.47
2023-03-26T02:36:08.284Z,66.63
2023-03-26T02:38:35.112Z,66.19
2023-03-26T02:41:05.387Z,65.43
2023-03-26T02:43:31.727Z,65.30
2023-03-26T02:45:58.429Z,64.50
2023-03-26T02:48:25.171Z,64.63
2023-03-26T02:50:54.335Z,64.80
2023-03-26T02:53:29.638Z,64.19
2023-03-26T02:56:00.116Z,64.31
2023-03-26T02:58:29.933Z,64.96
2023-03-26T03:00:56.963Z,65.07
2023-03-26T03:03:25.991Z,65.12
2023-03-26T03:05:56.422Z,67.34
2023-03-26T03:08:26.388Z,67.37
2023-03-26T03:10:59.377Z,66.88
2023-03-26T03:13:25.786Z,67.42
2023-03-26T03:15:52.872Z,67.99
2023-03-26T03:18:19.530Z,68.03
2023-03-26T03:20:46.756Z,68.56
2023-03-26T03:23:13.523Z,68.67
2023-03-26T03:25:40.997Z,69.44
2023-03-26T03:28:08.256Z,69.95
2023-03-26T03:30:35.683Z,70.57
2023-03-26T03:33:02.551Z,70.85
2023-03-26T03:35:30.469Z,70.40
2023-03-26T03:37:57.945Z,69.87
2023-03-26T03:40:24.705Z,70.28
2023-03-26T03:42:51.493Z,69.92
2023-03-26T03:45:18.005Z,71.68
2023-03-26T03:47:44.652Z,72.30
2023-03-26T03:50:11.265Z,72.56
2023-03-26T03:52:37.610Z,71.68
2023-03-26T03:55:04.308Z,71.14
2023-03-26T03:57:31.926Z,71.13
2023-03-26T03:59:58.372Z,71.59
2023-03-26T04:02:34.727Z,71.35
2023-03-26T04:05:02.869Z,71.23
2023-03-26T04:07:31.116Z,73.39
2023-03-26T04:09:59.902Z,74.17
2023-03-26T04:12:28.262Z,73.79
2023-03-26T04:14:55.588Z,73.91
2023-03-26T04:17:22.723Z,73.66
2023-03-26T04:19:50.376Z,73.12
2023-03-26T04:22:18.561Z,72.05
2023-03-26T04:24:45.666Z,70.96
2023-03-26T04:27:16.349Z,71.08
2023-03-26T04:29:46.457Z,71.35
2023-03-26T04:32:21.697Z,71.47
2023-03-26T04:34:48.184Z,71.29
2023-03-26T04:37:24.610Z,71.62
2023-03-26T04:39:50.921Z,71.27
2023-03-26T04:42:19.888Z,71.65
2023-03-26T04:44:50.673Z,71.53
2023-03-26T04:47:18.480Z,71.79
2023-03-26T04:49:47.225Z,72.18
2023-03-26T04:52:14.788Z,72.50
2023-03-26T04:54:44.126Z,72.70
2023-03-26T04:57:22.856Z,73.79
2023-03-26T04:59:50.039Z,73.32
2023-03-26T05:02:17.972Z,72.77
2023-03-26T05:04:46.950Z,72.22
2023-03-26T05:07:18.776Z,72.63
2023-03-26T05:09:45.253Z,73.73
2023-03-26T05:12:11.750Z,76.22
2023-03-26T05:14:38.068Z,75.20
2023-03-26T05:17:10.586Z,75.51
2023-03-26T05:19:38.170Z,76.79
2023-03-26T05:22:04.525Z,76.19
2023-03-26T05:24:30.838Z,75.64
2023-03-26T05:26:57.180Z,74.94
2023-03-26T05:29:24.177Z,75.44
2023-03-26T05:31:50.884Z,74.54
2023-03-26T05:34:17.272Z,74.34
2023-03-26T05:36:43.952Z,73.76
2023-03-26T05:39:10.648Z,73.06
2023-03-26T05:41:36.985Z,72.87
2023-03-26T05:44:03.422Z,73.23
2023-03-26T05:46:29.800Z,73.94
2023-03-26T05:48:56.130Z,75.54
2023-03-26T05:51:23.367Z,75.92
2023-03-26T05:53:49.727Z,76.14
2023-03-26T05:56:16.058Z,75.74
2023-03-26T05:58:43.673Z,75.19
2023-03-26T06:01:16.716Z,74.59
2023-03-26T06:03:44.852Z,74.56
2023-03-26T06:06:15.526Z,74.24
2023-03-26T06:08:46.795Z,74.27
2023-03-26T06:11:13.143Z,73.73
2023-03-26T06:13:39.668Z,73.68
2023-03-26T06:16:06.548Z,72.98
2023-03-26T06:18:32.890Z,72.58
2023-03-26T06:20:59.291Z,72.59
2023-03-26T06:23:25.695Z,71.56
2023-03-26T06:25:52.137Z,71.66
2023-03-26T06:28:18.470Z,71.41
2023-03-26T06:30:45.165Z,72.55
2023-03-26T06:33:11.676Z,72.40
2023-03-26T06:35:38.074Z,71.87
2023-03-26T06:38:04.541Z,72.84
2023-03-26T06:40:30.891Z,73.95
2023-03-26T06:43:08.087Z,74.15
2023-03-26T06:45:36.782Z,73.64
2023-03-26T06:48:03.352Z,72.97
2023-03-26T06:50:32.289Z,75.14
2023-03-26T06:52:58.817Z,77.23
2023-03-26T06:55:25.490Z,76.67
2023-03-26T06:57:53.449Z,75.92
2023-03-26T07:00:20.973Z,75.69
2023-03-26T07:02:47.708Z,75.31
2023-03-26T07:05:14.577Z,75.66
2023-03-26T07:07:46.433Z,75.08
2023-03-26T07:10:13.488Z,75.81
2023-03-26T07:12:39.832Z,75.53
2023-03-26T07:15:06.817Z,76.28
2023-03-26T07:17:33.206Z,76.87
2023-03-26T07:20:01.245Z,78.69
2023-03-26T07:22:28.109Z,79.14
2023-03-26T07:24:54.861Z,79.13
2023-03-26T07:27:36.705Z,78.95
2023-03-26T07:30:14.926Z,80.07
2023-03-26T07:32:55.272Z,80.10
2023-03-26T07:35:41.706Z,80.06
2023-03-26T07:38:29.617Z,80.40
2023-03-26T07:41:18.925Z,79.85
2023-03-26T07:44:09.899Z,80.45
2023-03-26T07:46:37.059Z,80.40
2023-03-26T07:49:04.555Z,81.15
2023-03-26T07:51:32.087Z,80.28
2023-03-26T07:54:03.969Z,80.19
2023-03-26T07:56:41.921Z,80.25
2023-03-26T07:59:33.180Z,80.46
2023-03-26T08:02:21.395Z,80.13
2023-03-26T08:05:10.437Z,80.85
2023-03-26T08:07:53.176Z,81.41
2023-03-26T08:10:27.158Z,81.00
2023-03-26T08:13:21.467Z,81.19
2023-03-26T08:16:15.532Z,81.48
2023-03-26T08:19:06.053Z,81.16
2023-03-26T08:21:42.985Z,81.34
2023-03-26T08:24:57.146Z,81.08
2023-03-26T08:27:37.655Z,82.04
2023-03-26T08:30:24.852Z,81.39
2023-03-26T08:32:57.409Z,81.34
2023-03-26T08:35:25.562Z,81.01
2023-03-26T08:37:51.911Z,81.19
2023-03-26T08:40:47.586Z,81.12
2023-03-26T08:43:26.135Z,82.09
2023-03-26T08:46:07.446Z,82.69
2023-03-26T08:49:01.759Z,82.59
2023-03-26T08:51:56.735Z,82.27
2023-03-26T08:55:21.988Z,82.24
2023-03-26T08:58:05.432Z,82.50
2023-03-26T09:00:40.261Z,81.41
2023-03-26T09:03:15.184Z,81.85
2023-03-26T09:06:03.470Z,82.10
2023-03-26T09:08:56.068Z,81.74
2023-03-26T09:11:51.706Z,82.14
2023-03-26T09:14:58.783Z,81.09
2023-03-26T09:17:59.372Z,81.63
2023-03-26T09:20:56.537Z,80.88
2023-03-26T09:23:46.285Z,80.87
2023-03-26T09:26:32.590Z,77.92
2023-03-26T09:29:11.136Z,78.00
2023-03-26T09:32:11.454Z,79.78
2023-03-26T09:35:03.364Z,81.49
2023-03-26T09:37:57.039Z,83.26
2023-03-26T09:40:36.787Z,84.02
2023-03-26T09:43:36.120Z,82.99
2023-03-26T09:46:30.380Z,81.79
2023-03-26T09:49:17.178Z,81.24
2023-03-26T09:51:54.468Z,81.27
2023-03-26T09:54:44.549Z,82.34
2023-03-26T09:57:21.675Z,82.72
2023-03-26T10:00:01.673Z,83.06
2023-03-26T10:02:49.156Z,82.12
2023-03-26T10:05:44.281Z,81.39
2023-03-26T10:08:23.362Z,81.50
2023-03-26T10:11:19.890Z,81.38
2023-03-26T10:14:18.877Z,80.48
2023-03-26T10:16:57.677Z,80.32
2023-03-26T10:19:49.697Z,80.07
2023-03-26T10:22:25.218Z,80.44
2023-03-26T10:25:27.667Z,80.22
2023-03-26T10:28:32.634Z,79.93
2023-03-26T10:31:10.523Z,79.98
2023-03-26T10:33:52.144Z,79.15
2023-03-26T10:36:29.636Z,78.80
2023-03-26T10:39:37.579Z,78.57
2023-03-26T10:42:28.646Z,78.18
2023-03-26T10:45:10.777Z,78.33
2023-03-26T10:48:01.143Z,77.69
2023-03-26T10:51:12.900Z,77.78
2023-03-26T10:53:49.133Z,77.84
2023-03-26T10:56:25.726Z,77.91
2023-03-26T10:58:53.622Z,77.50
2023-03-26T11:01:38.492Z,76.92
2023-03-26T11:04:28.012Z,76.48
2023-03-26T11:07:34.214Z,74.10
2023-03-26T11:10:08.639Z,74.30
2023-03-26T11:13:12.601Z,75.05
2023-03-26T11:15:52.034Z,73.97
2023-03-26T11:18:41.149Z,73.54
2023-03-26T11:21:32.017Z,73.66
2023-03-26T11:24:13.311Z,72.23
2023-03-26T11:26:56.633Z,72.27
2023-03-26T11:29:49.300Z,71.49
2023-03-26T11:32:22.436Z,72.00
2023-03-26T11:35:05.776Z,70.89
2023-03-26T11:37:38.528Z,70.20
2023-03-26T11:40:14.164Z,69.18
2023-03-26T11:42:42.252Z,68.94
2023-03-26T11:45:17.783Z,68.53
2023-03-26T11:47:50.522Z,67.44
2023-03-26T11:50:21.710Z,64.82
2023-03-26T11:52:48.235Z,62.25
2023-03-26T11:55:15.744Z,61.15
2023-03-26T11:57:51.205Z,60.41
2023-03-26T12:00:21.010Z,60.65
2023-03-26T12:02:49.038Z,61.71
2023-03-26T12:05:22.088Z,61.53
2023-03-26T12:07:57.595Z,61.48
2023-03-26T12:10:37.632Z,60.90
2023-03-26T12:13:25.326Z,59.90
2023-03-26T12:15:58.567Z,60.70
2023-03-26T12:18:27.519Z,60.34
2023-03-26T12:21:23.269Z,59.40
2023-03-26T12:24:05.041Z,57.62
2023-03-26T12:26:34.381Z,51.51
2023-03-26T12:29:12.192Z,50.57
2023-03-26T12:31:50.394Z,51.56
2023-03-26T12:34:19.840Z,49.58
2023-03-26T12:37:06.737Z,49.16
2023-03-26T12:40:07.964Z,49.24
2023-03-26T12:44:50.757Z,49.94
2023-03-26T12:45:28.056Z,50.97
2023-03-26T12:48:03.113Z,51.43
2023-03-26T12:50:59.152Z,52.99
2023-03-26T12:53:40.546Z,55.53
2023-03-26T12:56:19.606Z,57.03
2023-03-26T12:59:03.792Z,57.52
2023-03-26T13:01:45.747Z,57.79
2023-03-26T13:04:27.326Z,55.53
2023-03-26T13:07:25.143Z,55.79
2023-03-26T13:09:57.586Z,57.58
2023-03-26T13:12:38.059Z,59.51
2023-03-26T13:15:23.474Z,60.43
2023-03-26T13:18:19.902Z,60.65
2023-03-26T13:21:08.951Z,59.78
2023-03-26T13:23:47.272Z,55.98
2023-03-26T13:26:50.782Z,54.36
2023-03-26T13:30:00.952Z,55.73
2023-03-26T13:32:46.697Z,55.74
2023-03-26T13:35:27.258Z,56.48
2023-03-26T13:38:31.711Z,56.40
2023-03-26T13:41:01.128Z,56.96
2023-03-26T13:44:15.312Z,57.23
2023-03-26T13:46:47.166Z,58.45
2023-03-26T13:49:29.298Z,59.04
2023-03-26T13:52:02.444Z,59.85
2023-03-26T13:54:34.316Z,58.43
2023-03-26T13:57:33.524Z,59.29
2023-03-26T14:00:17.492Z,58.79
2023-03-26T14:02:48.521Z,59.54
2023-03-26T14:05:24.052Z,59.35
2023-03-26T14:08:00.985Z,59.54
2023-03-26T14:10:33.989Z,59.18
2023-03-26T14:13:21.295Z,60.30
2023-03-26T14:15:54.888Z,60.96
2023-03-26T14:18:27.306Z,60.66
2023-03-26T14:21:13.149Z,59.69
2023-03-26T14:24:01.827Z,59.64
2023-03-26T14:27:01.020Z,59.81
2023-03-26T14:29:56.372Z,61.72
2023-03-26T14:32:51.543Z,71.35
2023-03-26T14:35:35.000Z,74.27
2023-03-26T14:38:38.930Z,78.61
2023-03-26T14:41:28.809Z,80.08
2023-03-26T14:44:16.182Z,80.48
2023-03-26T14:47:20.415Z,85.17
2023-03-26T14:50:15.463Z,86.14
2023-03-26T14:52:53.175Z,85.56
2023-03-26T14:55:48.481Z,85.51
2023-03-26T14:58:59.161Z,83.88
2023-03-26T15:01:27.927Z,82.82
2023-03-26T15:04:12.802Z,83.42
2023-03-26T15:07:06.905Z,82.86
2023-03-26T15:09:59.400Z,81.67
2023-03-26T15:13:03.574Z,81.78
2023-03-26T15:15:35.365Z,81.82
2023-03-26T15:18:20.448Z,82.28
2023-03-26T15:21:07.588Z,82.11
2023-03-26T15:23:42.761Z,83.09
2023-03-26T15:26:37.878Z,83.22
2023-03-26T15:29:42.128Z,84.08
2023-03-26T15:32:30.048Z,84.16
2023-03-26T15:35:30.762Z,83.51
2023-03-26T15:37:59.756Z,82.17
2023-03-26T15:40:36.341Z,82.38
2023-03-26T15:43:14.668Z,82.98
2023-03-26T15:45:50.892Z,83.45
2023-03-26T15:48:36.503Z,82.80
2023-03-26T15:51:31.859Z,80.77
2023-03-26T15:54:30.224Z,81.54
2023-03-26T15:57:16.619Z,83.65
2023-03-26T16:00:02.599Z,87.68
2023-03-26T16:02:40.207Z,84.98
2023-03-26T16:05:30.038Z,83.49
2023-03-26T16:08:15.990Z,84.02
2023-03-26T16:10:58.758Z,83.08
2023-03-26T16:14:08.348Z,82.93
2023-03-26T16:16:57.315Z,82.58
2023-03-26T16:19:40.925Z,83.11
2023-03-26T16:22:14.433Z,82.94
2023-03-26T16:24:46.450Z,81.63
2023-03-26T16:27:12.762Z,82.22
2023-03-26T16:30:09.429Z,82.15
2023-03-26T16:33:07.593Z,83.14
2023-03-26T16:35:41.723Z,82.90
2023-03-26T16:38:14.878Z,82.63
2023-03-26T16:41:00.052Z,83.09
2023-03-26T16:43:45.946Z,83.02
2023-03-26T16:46:15.461Z,81.89
2023-03-26T16:48:59.184Z,83.20
2023-03-26T16:52:03.214Z,82.94
2023-03-26T16:54:39.736Z,80.99
2023-03-26T16:57:21.611Z,81.00
2023-03-26T17:00:16.288Z,80.62
2023-03-26T17:02:55.134Z,81.36
2023-03-26T17:05:36.505Z,81.49
2023-03-26T17:08:35.661Z,82.08
2023-03-26T17:11:27.686Z,81.95
2023-03-26T17:14:06.091Z,81.60
2023-03-26T17:16:34.066Z,81.54
2023-03-26T17:19:04.265Z,80.76
2023-03-26T17:21:51.856Z,80.90
2023-03-26T17:24:29.331Z,79.33
2023-03-26T17:27:07.655Z,80.14
2023-03-26T17:30:00.788Z,79.92
2023-03-26T17:32:59.798Z,79.41
2023-03-26T17:35:39.644Z,80.09
2023-03-26T17:38:29.055Z,81.10
2023-03-26T17:40:59.248Z,81.34
2023-03-26T17:43:38.008Z,81.37
2023-03-26T17:46:26.821Z,81.14
2023-03-26T17:49:11.421Z,80.24
2023-03-26T17:51:51.274Z,80.72
2023-03-26T17:54:23.931Z,80.89
2023-03-26T17:56:53.230Z,81.16
2023-03-26T17:59:23.367Z,80.69
2023-03-26T18:01:57.403Z,79.56
2023-03-26T18:04:32.283Z,77.91
2023-03-26T18:07:13.466Z,77.28
2023-03-26T18:09:56.363Z,77.22
2023-03-26T18:12:44.337Z,77.65
2023-03-26T18:15:35.872Z,76.89
2023-03-26T18:18:11.698Z,76.81
2023-03-26T18:20:38.559Z,77.80
2023-03-26T18:23:20.346Z,76.19
2023-03-26T18:25:55.948Z,77.56
2023-03-26T18:28:29.924Z,78.28
2023-03-26T18:31:09.190Z,78.41
2023-03-26T18:33:45.277Z,78.16
2023-03-26T18:36:13.606Z,78.49
2023-03-26T18:38:41.222Z,78.89
2023-03-26T18:41:19.578Z,79.49
2023-03-26T18:43:45.955Z,79.58
2023-03-26T18:46:14.377Z,79.12
2023-03-26T18:48:41.555Z,79.12
2023-03-26T18:51:08.241Z,78.52
2023-03-26T18:53:43.476Z,78.53
2023-03-26T18:56:37.256Z,79.30
2023-03-26T18:59:21.734Z,78.94
2023-03-26T19:01:48.861Z,77.74
2023-03-26T19:04:16.212Z,77.73
2023-03-26T19:06:43.855Z,77.17
2023-03-26T19:09:28.004Z,77.19
2023-03-26T19:12:04.482Z,77.14
2023-03-26T19:14:35.198Z,77.28
2023-03-26T19:17:04.993Z,78.21
2023-03-26T19:19:36.708Z,77.79
2023-03-26T19:22:07.347Z,76.58
2023-03-26T19:24:34.231Z,77.28
2023-03-26T19:27:01.001Z,77.25
2023-03-26T19:29:31.395Z,76.70
2023-03-26T19:32:27.470Z,77.02
2023-03-26T19:34:53.952Z,77.11
2023-03-26T19:37:21.819Z,77.69
2023-03-26T19:39:54.038Z,77.84
2023-03-26T19:42:27.048Z,78.13
2023-03-26T19:45:16.429Z,78.46
2023-03-26T19:47:50.447Z,77.87
2023-03-26T19:50:30.040Z,79.10
2023-03-26T19:53:24.096Z,78.28
2023-03-26T19:56:11.417Z,78.46
2023-03-26T19:58:37.952Z,78.37
2023-03-26T20:01:05.289Z,78.69
2023-03-26T20:03:40.858Z,78.79
2023-03-26T20:06:11.892Z,79.39
2023-03-26T20:08:40.345Z,79.67
2023-03-26T20:11:14.920Z,79.46
2023-03-26T20:13:41.278Z,79.48
2023-03-26T20:16:14.552Z,79.49
2023-03-26T20:18:40.928Z,80.09
2023-03-26T20:21:12.380Z,80.77
2023-03-26T20:23:40.772Z,80.57
2023-03-26T20:26:12.584Z,81.10
2023-03-26T20:28:47.628Z,81.27
2023-03-26T20:31:19.244Z,82.08
2023-03-26T20:33:47.819Z,83.11
2023-03-26T20:36:14.649Z,82.11
2023-03-26T20:39:01.617Z,81.64
2023-03-26T20:41:28.928Z,81.56
2023-03-26T20:43:55.547Z,81.63
2023-03-26T20:46:23.851Z,81.61
2023-03-26T20:48:57.868Z,82.12
2023-03-26T20:51:24.393Z,82.40
2023-03-26T20:53:50.961Z,81.75
2023-03-26T20:56:19.610Z,80.64
2023-03-26T20:58:50.849Z,80.74
2023-03-26T21:01:24.599Z,81.33
2023-03-26T21:03:50.991Z,81.92
2023-03-26T21:06:17.339Z,82.35
2023-03-26T21:08:44.677Z,82.62
2023-03-26T21:11:39.063Z,83.06
2023-03-26T21:14:22.802Z,84.09
2023-03-26T21:16:49.695Z,84.46
2023-03-26T21:19:16.354Z,84.59
2023-03-26T21:22:02.926Z,85.19
2023-03-26T21:24:43.981Z,84.61
2023-03-26T21:27:22.183Z,84.15
2023-03-26T21:29:48.820Z,83.64
2023-03-26T21:32:15.466Z,84.13
2023-03-26T21:34:55.477Z,84.46
2023-03-26T21:37:24.820Z,84.40
2023-03-26T21:39:51.463Z,83.67
2023-03-26T21:42:18.481Z,83.04
2023-03-26T21:44:45.084Z,83.26
2023-03-26T21:47:11.810Z,82.96
2023-03-26T21:49:38.496Z,82.76
2023-03-26T21:52:05.179Z,81.62
2023-03-26T21:54:32.834Z,81.38
2023-03-26T21:57:29.044Z,81.42
2023-03-26T22:00:18.137Z,82.41
2023-03-26T22:02:50.598Z,83.08
2023-03-26T22:05:26.481Z,83.15
2023-03-26T22:07:56.851Z,83.14
2023-03-26T22:10:23.325Z,83.32
2023-03-26T22:12:49.717Z,83.37
2023-03-26T22:15:19.099Z,83.75
2023-03-26T22:17:53.556Z,83.71
2023-03-26T22:20:24.193Z,83.46
2023-03-26T22:22:50.734Z,83.83
2023-03-26T22:25:18.363Z,83.96
2023-03-26T22:27:45.958Z,83.92
2023-03-26T22:30:13.806Z,83.10
2023-03-26T22:32:40.648Z,83.49
2023-03-26T22:35:07.690Z,83.38
2023-03-26T22:37:35.477Z,84.06
2023-03-26T22:40:02.006Z,84.24
2023-03-26T22:42:28.348Z,84.02
2023-03-26T22:44:54.689Z,84.54
2023-03-26T22:47:21.751Z,83.88
2023-03-26T22:49:48.193Z,83.58
2023-03-26T22:52:14.569Z,83.61
2023-03-26T22:54:40.903Z,83.44
2023-03-26T22:57:07.419Z,83.37
2023-03-26T22:59:33.830Z,83.49
2023-03-26T23:02:00.496Z,83.49
2023-03-26T23:04:32.218Z,83.47
2023-03-26T23:06:58.925Z,84.21
2023-03-26T23:09:25.694Z,84.45
2023-03-26T23:11:52.052Z,84.33
2023-03-26T23:14:18.964Z,83.97
2023-03-26T23:16:48.303Z,83.54
2023-03-26T23:19:14.635Z,82.63
2023-03-26T23:21:41.252Z,83.06
2023-03-26T23:24:08.058Z,84.25
2023-03-26T23:26:43.913Z,83.88
2023-03-26T23:29:16.385Z,83.66
2023-03-26T23:31:42.817Z,83.94
2023-03-26T23:34:09.253Z,83.97
2023-03-26T23:36:36.257Z,83.46
2023-03-26T23:39:02.789Z,83.22
2023-03-26T23:41:29.189Z,82.53
2023-03-26T23:43:56.048Z,81.70
2023-03-26T23:46:24.615Z,81.70
2023-03-26T23:48:51.883Z,81.30
2023-03-26T23:51:19.976Z,80.90
2023-03-26T23:53:47.691Z,81.65
2023-03-26T23:56:14.017Z,81.71
2023-03-26T23:58:40.549Z,81.67
